Time;durP1;ratioP1;P1;durP2;ratioP2;P2;SDS_P1;SDS_P2;PMS_P1;PMS_P2;Temp;Humidity;BMP_temperature;BMP_pressure;BME280_temperature;BME280_humidity;BME280_pressure;Samples;Min_cycle;Max_cycle;Signal;HPM_P1;HPM_P2
2021/08/20 00:00:02;;;;;;;0.15;0.13;;;25.40;47.40;;;;;;5007015;28;20467;-69
2021/08/20 00:02:41;;;;;;;0.40;0.30;;;25.40;47.40;;;;;;5007613;28;20038;-68
2021/08/20 00:05:10;;;;;;;0.70;0.20;;;25.40;47.40;;;;;;5008799;28;20125;-68
2021/08/20 00:07:37;;;;;;;0.20;0.20;;;25.40;47.40;;;;;;5007315;28;20057;-68
2021/08/20 00:10:06;;;;;;;0.17;0.10;;;25.40;47.40;;;;;;5007000;28;20038;-68
2021/08/20 00:12:33;;;;;;;0.10;0.10;;;25.40;47.40;;;;;;5007055;28;20058;-68
2021/08/20 00:15:01;;;;;;;0.10;0.10;;;25.40;47.40;;;;;;5006195;28;20042;-71
2021/08/20 00:17:28;;;;;;;0.10;0.10;;;25.40;47.40;;;;;;5007476;28;20065;-67
2021/08/20 00:19:56;;;;;;;0.20;0.10;;;25.40;47.50;;;;;;5008884;28;20500;-68
2021/08/20 00:22:23;;;;;;;0.40;0.20;;;25.40;47.40;;;;;;5007160;28;20536;-68
2021/08/20 00:24:51;;;;;;;0.10;0.10;;;25.30;47.30;;;;;;5007964;28;20842;-69
2021/08/20 00:27:18;;;;;;;0.20;0.20;;;25.40;47.70;;;;;;5008167;28;20049;-69
2021/08/20 00:29:45;;;;;;;0.10;0.10;;;25.40;47.40;;;;;;4993820;28;20511;-68
2021/08/20 00:32:12;;;;;;;0.10;0.10;;;25.30;47.30;;;;;;5009543;28;20077;-68
2021/08/20 00:34:39;;;;;;;0.57;0.10;;;25.30;47.30;;;;;;5006594;28;20153;-68
2021/08/20 00:37:08;;;;;;;0.13;0.10;;;25.30;47.30;;;;;;5005805;28;20125;-67
2021/08/20 00:39:38;;;;;;;0.30;0.20;;;25.30;47.30;;;;;;5005284;28;20129;-68
2021/08/20 00:42:06;;;;;;;0.10;0.10;;;25.30;47.30;;;;;;5006837;28;20516;-67
2021/08/20 00:44:33;;;;;;;0.25;0.10;;;25.30;47.40;;;;;;5006865;28;20046;-68
2021/08/20 00:47:01;;;;;;;0.13;0.10;;;25.30;47.30;;;;;;5008177;28;20665;-68
2021/08/20 00:49:30;;;;;;;0.10;0.10;;;25.30;47.40;;;;;;5006782;28;20042;-68
2021/08/20 00:51:57;;;;;;;0.82;0.10;;;25.30;47.40;;;;;;5007429;28;20715;-69
2021/08/20 00:54:26;;;;;;;0.20;0.10;;;25.30;47.30;;;;;;5007010;28;20591;-69
2021/08/20 00:56:54;;;;;;;0.13;0.10;;;25.30;47.40;;;;;;5005528;28;20073;-68
2021/08/20 00:59:25;;;;;;;0.28;0.15;;;25.30;47.40;;;;;;5008952;28;20050;-68
2021/08/20 01:01:52;;;;;;;0.15;0.15;;;25.30;47.40;;;;;;5007962;28;20046;-69
2021/08/20 01:04:19;;;;;;;0.10;0.10;;;25.30;47.40;;;;;;5006564;28;20069;-69
2021/08/20 01:06:47;;;;;;;0.20;0.20;;;25.30;47.30;;;;;;5005865;28;20038;-68
2021/08/20 01:09:15;;;;;;;0.10;0.10;;;25.30;47.30;;;;;;5016994;28;20046;-68
2021/08/20 01:11:45;;;;;;;0.20;0.10;;;25.30;47.30;;;;;;5005674;28;20488;-67
2021/08/20 01:14:16;;;;;;;0.10;0.10;;;25.30;47.30;;;;;;5008179;28;20128;-68
2021/08/20 01:16:43;;;;;;;0.20;0.20;;;25.30;47.30;;;;;;5006273;28;20552;-68
2021/08/20 01:19:11;;;;;;;0.30;0.20;;;25.30;47.30;;;;;;5018326;28;20938;-68
2021/08/20 01:21:38;;;;;;;0.98;0.10;;;25.30;47.30;;;;;;5005627;28;20501;-69
2021/08/20 01:24:08;;;;;;;0.80;0.10;;;25.30;47.30;;;;;;5005310;28;20061;-68
2021/08/20 01:26:36;;;;;;;0.20;0.15;;;25.30;47.30;;;;;;5006971;28;20168;-69
2021/08/20 01:29:03;;;;;;;0.13;0.13;;;25.30;47.30;;;;;;5007945;28;20646;-68
2021/08/20 01:31:32;;;;;;;0.20;0.13;;;25.30;47.30;;;;;;5005319;28;20117;-69
2021/08/20 01:33:59;;;;;;;2.15;0.25;;;25.30;47.30;;;;;;5005481;28;20038;-70
2021/08/20 01:36:26;;;;;;;0.10;0.10;;;25.30;47.30;;;;;;5014983;28;20060;-69
2021/08/20 01:38:58;;;;;;;0.10;0.10;;;25.30;47.30;;;;;;5019656;28;20193;-69
2021/08/20 01:41:26;;;;;;;1.65;0.10;;;25.30;47.30;;;;;;5005374;28;20049;-69
2021/08/20 01:43:58;;;;;;;0.22;0.10;;;25.30;47.30;;;;;;5007401;28;20419;-68
2021/08/20 01:46:25;;;;;;;0.10;0.10;;;25.30;47.20;;;;;;5006887;28;20070;-69
2021/08/20 01:48:53;;;;;;;0.20;0.20;;;25.30;47.30;;;;;;5010261;28;20533;-68
2021/08/20 01:51:22;;;;;;;0.20;0.10;;;25.30;47.20;;;;;;5008741;28;20083;-69
2021/08/20 01:53:53;;;;;;;0.10;0.10;;;25.30;47.20;;;;;;5021671;28;20046;-69
2021/08/20 01:56:21;;;;;;;0.13;0.13;;;25.30;47.20;;;;;;5010190;28;20068;-69
2021/08/20 01:58:50;;;;;;;1.10;0.22;;;25.30;47.20;;;;;;4996472;28;20046;-69
2021/08/20 02:01:19;;;;;;;1.75;0.20;;;25.30;47.80;;;;;;4989010;28;20050;-68
2021/08/20 02:03:47;;;;;;;0.10;0.10;;;25.30;47.20;;;;;;5007068;28;20526;-69
2021/08/20 02:06:15;;;;;;;2.95;0.10;;;25.30;47.20;;;;;;4981709;28;20046;-67
2021/08/20 02:08:46;;;;;;;1.50;0.10;;;25.30;47.20;;;;;;4993011;28;20053;-68
2021/08/20 02:11:14;;;;;;;0.10;0.10;;;25.30;47.20;;;;;;5022273;28;20924;-68
2021/08/20 02:13:47;;;;;;;0.65;0.10;;;25.30;47.20;;;;;;5021939;28;20057;-68
2021/08/20 02:16:14;;;;;;;0.65;0.30;;;25.30;47.20;;;;;;5004126;28;20042;-69
2021/08/20 02:18:43;;;;;;;1.35;0.10;;;25.30;47.20;;;;;;5008082;28;20049;-68
2021/08/20 02:21:10;;;;;;;0.10;0.10;;;25.30;47.20;;;;;;5020192;28;20046;-68
2021/08/20 02:23:39;;;;;;;0.20;0.10;;;25.30;47.20;;;;;;5025448;28;20041;-68
2021/08/20 02:26:09;;;;;;;0.20;0.10;;;25.30;47.20;;;;;;4994946;28;20121;-68
2021/08/20 02:28:36;;;;;;;0.95;0.10;;;25.30;47.20;;;;;;4990823;28;20054;-68
2021/08/20 02:31:03;;;;;;;0.10;0.10;;;25.30;47.20;;;;;;5015722;28;20042;-69
2021/08/20 02:33:34;;;;;;;0.40;0.10;;;25.30;47.20;;;;;;5016863;28;20050;-69
2021/08/20 02:36:06;;;;;;;0.13;0.10;;;25.30;47.20;;;;;;5016724;28;20045;-70
2021/08/20 02:38:34;;;;;;;0.20;0.10;;;25.30;47.20;;;;;;5006058;28;20048;-70
2021/08/20 02:41:03;;;;;;;1.20;0.10;;;25.30;47.20;;;;;;4996385;28;20054;-68
2021/08/20 02:43:31;;;;;;;0.85;0.20;;;25.30;47.20;;;;;;5005332;28;20813;-68
2021/08/20 02:45:58;;;;;;;0.80;0.10;;;25.30;47.20;;;;;;5007692;28;20040;-68
2021/08/20 02:48:27;;;;;;;0.20;0.10;;;25.30;47.20;;;;;;5007707;28;20038;-68
2021/08/20 02:50:55;;;;;;;0.20;0.10;;;25.30;47.20;;;;;;5007469;28;20038;-68
2021/08/20 02:53:26;;;;;;;0.10;0.10;;;25.30;47.20;;;;;;5007397;28;20038;-69
2021/08/20 02:55:55;;;;;;;1.40;0.28;;;25.30;47.20;;;;;;5009619;28;20543;-67
2021/08/20 02:58:37;;;;;;;0.30;0.10;;;25.30;47.20;;;;;;5006526;28;20062;-68
2021/08/20 03:01:04;;;;;;;0.28;0.28;;;25.30;47.20;;;;;;5007102;28;20129;-67
2021/08/20 03:03:31;;;;;;;0.55;0.20;;;25.30;47.20;;;;;;5019182;28;20129;-68
2021/08/20 03:05:59;;;;;;;0.60;0.10;;;25.30;47.20;;;;;;5007575;28;20049;-68
2021/08/20 03:08:28;;;;;;;0.22;0.10;;;25.30;47.20;;;;;;5010123;28;20046;-67
2021/08/20 03:10:55;;;;;;;0.20;0.10;;;25.30;47.20;;;;;;4991494;28;20046;-68
2021/08/20 03:13:22;;;;;;;0.60;0.10;;;25.30;47.20;;;;;;5023128;28;20049;-67
2021/08/20 03:15:53;;;;;;;0.10;0.10;;;25.30;47.20;;;;;;4990785;28;20045;-68
2021/08/20 03:18:21;;;;;;;0.20;0.20;;;25.30;47.20;;;;;;5007143;28;20053;-68
2021/08/20 03:20:50;;;;;;;0.20;0.10;;;25.30;47.20;;;;;;5022474;28;20040;-67
2021/08/20 03:23:56;;;;;;;0.10;0.10;;;25.30;47.20;;;;;;5084005;27;20394;-67
2021/08/20 03:26:39;;;;;;;0.55;0.10;;;25.30;47.20;;;;;;5124190;27;20421;-68
2021/08/20 03:29:22;;;;;;;1.65;0.20;;;25.30;47.20;;;;;;5084776;28;20465;-68
2021/08/20 03:32:18;;;;;;;0.10;0.10;;;25.30;47.20;;;;;;5085608;27;20469;-67
2021/08/20 03:35:00;;;;;;;0.10;0.10;;;25.30;47.20;;;;;;5071726;27;20381;-67
2021/08/20 03:37:42;;;;;;;0.45;0.10;;;25.30;47.20;;;;;;5107687;27;20477;-67
2021/08/20 03:40:30;;;;;;;0.17;0.17;;;25.30;47.20;;;;;;5131175;27;20338;-67
2021/08/20 03:43:12;;;;;;;0.20;0.10;;;25.30;47.20;;;;;;5072321;28;20453;-68
2021/08/20 03:45:59;;;;;;;1.90;0.10;;;25.30;47.30;;;;;;5078314;27;20390;-67
2021/08/20 03:48:45;;;;;;;1.77;0.10;;;25.30;47.30;;;;;;5074652;27;20387;-67
2021/08/20 03:51:25;;;;;;;0.20;0.20;;;25.30;47.20;;;;;;5078262;28;20394;-68
2021/08/20 03:54:04;;;;;;;0.20;0.10;;;25.30;47.20;;;;;;5081593;27;20752;-68
2021/08/20 03:56:44;;;;;;;0.80;0.17;;;25.30;47.30;;;;;;5075604;28;20439;-67
2021/08/20 03:59:33;;;;;;;0.28;0.20;;;25.30;47.30;;;;;;5124865;27;20333;-68
2021/08/20 04:02:18;;;;;;;0.13;0.13;;;25.30;47.30;;;;;;5143816;27;1286965;-67
2021/08/20 04:05:01;;;;;;;0.20;0.20;;;25.30;47.30;;;;;;5071482;27;20417;-67
2021/08/20 04:08:02;;;;;;;0.17;0.10;;;25.30;47.30;;;;;;5071146;27;21024;-67
2021/08/20 04:11:12;;;;;;;0.10;0.10;;;25.30;47.30;;;;;;5106807;27;20335;-68
2021/08/20 04:14:04;;;;;;;0.20;0.10;;;25.30;47.30;;;;;;5091201;27;20455;-68
2021/08/20 04:16:45;;;;;;;0.20;0.20;;;25.30;47.30;;;;;;5066151;27;20425;-68
2021/08/20 04:19:24;;;;;;;1.27;0.55;;;25.30;47.30;;;;;;5070684;28;20465;-67
2021/08/20 04:22:06;;;;;;;0.10;0.10;;;25.30;47.40;;;;;;5113699;27;20434;-67
2021/08/20 04:24:51;;;;;;;0.32;0.20;;;25.30;47.30;;;;;;5074732;27;20411;-67
2021/08/20 04:27:51;;;;;;;0.45;0.10;;;25.30;47.30;;;;;;5076779;27;20393;-67
2021/08/20 04:30:55;;;;;;;0.10;0.10;;;25.30;47.40;;;;;;5074616;28;20480;-67
2021/08/20 04:33:49;;;;;;;0.15;0.10;;;25.30;47.40;;;;;;5074866;27;20387;-67
2021/08/20 04:36:48;;;;;;;0.63;0.20;;;25.30;47.40;;;;;;5116488;27;20113;-69
2021/08/20 04:40:02;;;;;;;1.38;0.40;;;25.30;47.40;;;;;;5073685;27;20423;-68
2021/08/20 04:43:04;;;;;;;0.52;0.10;;;25.30;47.40;;;;;;5097248;27;20393;-68
2021/08/20 04:45:56;;;;;;;0.43;0.10;;;25.30;47.50;;;;;;5074282;28;20437;-68
2021/08/20 04:48:56;;;;;;;1.77;0.10;;;25.20;47.40;;;;;;5135416;27;20116;-68
2021/08/20 04:51:59;;;;;;;0.30;0.20;;;25.30;47.50;;;;;;5074114;27;20394;-67
2021/08/20 04:54:44;;;;;;;0.25;0.10;;;25.30;47.50;;;;;;5075960;28;20807;-67
2021/08/20 04:57:27;;;;;;;0.10;0.10;;;25.30;47.50;;;;;;5077225;27;20805;-67
2021/08/20 05:00:20;;;;;;;0.90;0.10;;;25.30;47.50;;;;;;5156123;27;20497;-68
2021/08/20 05:03:26;;;;;;;0.20;0.20;;;25.30;47.40;;;;;;5140813;27;20408;-67
2021/08/20 05:06:22;;;;;;;0.10;0.10;;;25.40;47.30;;;;;;5158652;27;20426;-67
2021/08/20 05:09:21;;;;;;;0.20;0.10;;;25.40;47.30;;;;;;5084987;27;20536;-67
2021/08/20 05:12:17;;;;;;;1.65;0.10;;;25.40;47.20;;;;;;5100436;27;20411;-67
2021/08/20 05:15:12;;;;;;;1.85;0.10;;;25.40;47.10;;;;;;5101161;27;21032;-68
2021/08/20 05:18:10;;;;;;;2.95;0.10;;;25.40;47.10;;;;;;5205294;27;20383;-66
2021/08/20 05:20:37;;;;;;;0.25;0.10;;;25.50;47.10;;;;;;5187489;27;20069;-67
2021/08/20 05:23:33;;;;;;;0.60;0.10;;;25.40;47.10;;;;;;5100407;27;20504;-66
2021/08/20 05:26:42;;;;;;;1.05;0.43;;;25.40;47.10;;;;;;5163008;27;20433;-67
2021/08/20 05:29:35;;;;;;;0.88;0.88;;;25.50;47.00;;;;;;5104698;27;20966;-68
2021/08/20 05:32:14;;;;;;;3.40;1.10;;;25.50;47.10;;;;;;5085487;28;20952;-67
2021/08/20 05:34:54;;;;;;;1.25;1.20;;;25.50;47.10;;;;;;5069850;28;20387;-68
2021/08/20 05:37:34;;;;;;;2.17;1.20;;;25.40;47.10;;;;;;5068156;27;20472;-69
2021/08/20 05:40:14;;;;;;;2.95;1.60;;;25.40;47.20;;;;;;5072185;27;20418;-68
2021/08/20 05:42:53;;;;;;;0.77;0.70;;;25.40;47.20;;;;;;5094483;27;20397;-67
2021/08/20 05:45:36;;;;;;;0.88;0.88;;;25.40;47.20;;;;;;5118320;27;20461;-66
2021/08/20 05:48:16;;;;;;;1.92;1.40;;;25.40;47.20;;;;;;5080168;27;20387;-68
2021/08/20 05:50:56;;;;;;;3.70;1.23;;;25.40;47.30;;;;;;5083306;27;20401;-67
2021/08/20 05:53:36;;;;;;;1.50;1.08;;;25.40;47.30;;;;;;5084090;28;20906;-67
2021/08/20 05:56:15;;;;;;;2.60;2.38;;;25.40;47.30;;;;;;5085974;27;20385;-67
2021/08/20 05:58:55;;;;;;;2.55;2.35;;;25.40;47.30;;;;;;5058429;27;20412;-67
2021/08/20 06:01:35;;;;;;;2.05;1.90;;;25.40;48.00;;;;;;5089396;27;20980;-68
2021/08/20 06:04:17;;;;;;;2.45;2.25;;;25.40;47.40;;;;;;5067413;27;20396;-67
2021/08/20 06:06:56;;;;;;;2.10;1.75;;;25.40;47.40;;;;;;5074579;28;20441;-68
2021/08/20 06:09:40;;;;;;;1.45;1.35;;;25.40;47.30;;;;;;5077734;27;20391;-68
2021/08/20 06:12:24;;;;;;;2.47;2.25;;;25.40;47.40;;;;;;5078555;28;20425;-67
2021/08/20 06:15:07;;;;;;;2.78;2.58;;;25.40;47.40;;;;;;5071744;27;20980;-68
2021/08/20 06:17:47;;;;;;;3.20;2.47;;;25.40;47.40;;;;;;5063770;28;20399;-67
2021/08/20 06:20:27;;;;;;;5.07;2.08;;;25.40;47.60;;;;;;5104387;27;20792;-67
2021/08/20 06:23:08;;;;;;;3.28;2.45;;;25.40;47.40;;;;;;5070385;27;20798;-67
2021/08/20 06:25:50;;;;;;;2.15;1.67;;;25.40;47.30;;;;;;5066663;27;20407;-70
2021/08/20 06:28:30;;;;;;;2.13;2.00;;;25.40;47.30;;;;;;5089051;27;20833;-68
2021/08/20 06:31:11;;;;;;;1.85;1.73;;;25.40;47.30;;;;;;5112761;27;20438;-68
2021/08/20 06:33:53;;;;;;;3.00;2.42;;;25.50;47.40;;;;;;5075172;28;20452;-67
2021/08/20 06:36:35;;;;;;;3.10;2.90;;;25.40;47.30;;;;;;5118187;27;20467;-67
2021/08/20 06:39:15;;;;;;;3.60;3.20;;;25.40;47.30;;;;;;5080255;28;20435;-67
2021/08/20 06:41:57;;;;;;;4.88;4.15;;;25.50;47.40;;;;;;5082815;28;20809;-68
2021/08/20 06:44:38;;;;;;;5.72;4.85;;;25.50;47.40;;;;;;5081538;28;20412;-67
2021/08/20 06:47:18;;;;;;;3.83;3.08;;;25.50;47.40;;;;;;5085740;27;20934;-67
2021/08/20 06:49:59;;;;;;;4.35;3.63;;;25.50;47.30;;;;;;5071942;27;20992;-66
2021/08/20 06:52:39;;;;;;;3.40;3.08;;;25.50;47.30;;;;;;5058110;27;20400;-67
2021/08/20 06:55:22;;;;;;;2.03;1.83;;;25.50;47.30;;;;;;5076952;28;20452;-68
2021/08/20 06:58:01;;;;;;;2.72;2.08;;;25.50;47.30;;;;;;5073781;27;20394;-68
2021/08/20 07:00:43;;;;;;;1.83;1.65;;;25.50;47.30;;;;;;5017280;28;20478;-67
2021/08/20 07:03:23;;;;;;;2.30;2.10;;;25.50;47.30;;;;;;5079783;28;21224;-68
2021/08/20 07:06:03;;;;;;;1.48;1.38;;;25.50;47.20;;;;;;5102781;27;20396;-68
2021/08/20 07:08:44;;;;;;;2.63;1.40;;;25.60;47.30;;;;;;5080490;28;20424;-66
2021/08/20 07:11:26;;;;;;;3.67;1.17;;;25.60;47.30;;;;;;5083970;27;20924;-68
2021/08/20 07:14:07;;;;;;;2.08;1.63;;;25.50;47.20;;;;;;5070830;27;20453;-67
2021/08/20 07:16:47;;;;;;;1.60;0.77;;;25.60;47.30;;;;;;5066865;27;20394;-69
2021/08/20 07:19:26;;;;;;;1.33;0.90;;;25.60;47.30;;;;;;5077315;28;20393;-70
2021/08/20 07:22:06;;;;;;;2.83;1.10;;;25.60;47.30;;;;;;5072962;28;21001;-70
2021/08/20 07:24:48;;;;;;;2.80;1.10;;;25.60;47.30;;;;;;5075765;28;20429;-69
2021/08/20 07:27:27;;;;;;;5.28;1.20;;;25.60;47.30;;;;;;4979349;28;20946;-68
2021/08/20 07:30:08;;;;;;;2.00;1.00;;;25.60;47.30;;;;;;5082248;27;20469;-67
2021/08/20 07:32:48;;;;;;;1.83;0.75;;;25.60;47.40;;;;;;5079880;28;21303;-68
2021/08/20 07:35:28;;;;;;;4.78;0.70;;;25.60;47.40;;;;;;5084152;27;20404;-67
2021/08/20 07:38:10;;;;;;;0.95;0.55;;;25.60;47.40;;;;;;5070342;28;20433;-67
2021/08/20 07:40:50;;;;;;;2.03;0.60;;;25.70;47.50;;;;;;5059746;27;20393;-67
2021/08/20 07:43:31;;;;;;;1.40;0.40;;;25.70;47.50;;;;;;5074907;28;20485;-67
2021/08/20 07:46:13;;;;;;;32.85;3.67;;;25.70;47.60;;;;;;5076524;27;20498;-56
2021/08/20 07:48:52;;;;;;;4.70;0.35;;;25.70;47.60;;;;;;5066613;28;20462;-53
2021/08/20 07:51:35;;;;;;;12.32;0.60;;;25.60;47.60;;;;;;5075154;28;20476;-67
2021/08/20 07:54:16;;;;;;;4.93;0.63;;;25.60;47.80;;;;;;5079641;27;20475;-61
2021/08/20 07:56:43;;;;;;;6.13;0.63;;;25.60;47.90;;;;;;5081042;28;20036;-66
2021/08/20 07:59:26;;;;;;;5.97;0.85;;;25.60;48.20;;;;;;5104308;27;20410;-55
2021/08/20 08:02:07;;;;;;;4.25;0.88;;;25.60;48.30;;;;;;5083867;27;20393;-63
2021/08/20 08:05:32;;;;;;;1.55;0.47;;;25.50;48.60;;;;;;5104416;27;20997;-66
2021/08/20 08:08:30;;;;;;;3.47;0.20;;;25.50;48.60;;;;;;5082880;27;20412;-67
2021/08/20 08:11:23;;;;;;;0.85;0.32;;;25.50;48.70;;;;;;5084723;27;20542;-69
2021/08/20 08:14:22;;;;;;;2.28;0.20;;;25.50;48.70;;;;;;5097119;27;20419;-59
2021/08/20 08:17:20;;;;;;;2.75;0.20;;;25.50;48.60;;;;;;5208923;27;20393;-58
2021/08/20 08:20:18;;;;;;;9.73;1.25;;;25.50;48.50;;;;;;5106214;27;20455;-58
2021/08/20 08:23:28;;;;;;;0.82;0.43;;;25.50;48.50;;;;;;5158404;27;20404;-62
2021/08/20 08:26:23;;;;;;;1.42;0.28;;;25.60;48.50;;;;;;5088836;27;20442;-69
2021/08/20 08:29:21;;;;;;;2.50;0.10;;;25.60;48.50;;;;;;5203545;27;20476;-66
2021/08/20 08:32:16;;;;;;;1.15;0.40;;;25.60;48.40;;;;;;5156968;27;20510;-59
2021/08/20 08:35:24;;;;;;;1.35;0.60;;;25.60;48.30;;;;;;5146816;27;20403;-62
2021/08/20 08:38:19;;;;;;;2.13;0.20;;;25.70;48.30;;;;;;5105791;27;20978;-61
2021/08/20 08:41:20;;;;;;;5.68;0.30;;;25.70;48.10;;;;;;5106832;27;20406;-62
2021/08/20 08:44:15;;;;;;;1.60;0.40;;;25.90;48.00;;;;;;5103005;27;20504;-62
2021/08/20 08:47:33;;;;;;;2.10;0.47;;;25.90;47.90;;;;;;5083858;27;20480;-66
2021/08/20 08:50:15;;;;;;;5.03;0.40;;;26.00;47.60;;;;;;5067582;28;20391;-49
2021/08/20 08:52:56;;;;;;;8.32;0.57;;;26.00;47.50;;;;;;5083192;27;20761;-57
2021/08/20 08:55:36;;;;;;;2.55;0.55;;;26.10;47.60;;;;;;5081205;28;20385;-61
2021/08/20 08:58:17;;;;;;;1.70;0.50;;;26.10;47.60;;;;;;5077317;28;20479;-57
2021/08/20 09:00:59;;;;;;;1.52;0.20;;;26.10;47.50;;;;;;5081385;28;20819;-61
2021/08/20 09:03:40;;;;;;;3.35;0.30;;;26.10;47.40;;;;;;5081420;28;20447;-60
2021/08/20 09:06:36;;;;;;;2.65;0.22;;;26.10;47.80;;;;;;5080798;27;20926;-65
2021/08/20 09:09:20;;;;;;;2.67;0.30;;;26.20;47.10;;;;;;5080633;28;20227;-54
2021/08/20 09:12:06;;;;;;;1.05;0.40;;;26.20;47.00;;;;;;5081587;27;20391;-65
2021/08/20 09:14:57;;;;;;;1.65;0.38;;;26.20;46.90;;;;;;5102051;27;20118;-58
2021/08/20 09:17:47;;;;;;;5.47;1.05;;;26.20;46.80;;;;;;5082057;28;20428;-60
2021/08/20 09:20:30;;;;;;;2.92;0.30;;;26.20;46.70;;;;;;5084258;27;20397;-62
2021/08/20 09:23:20;;;;;;;1.10;0.20;;;26.20;46.70;;;;;;5069734;27;20930;-63
2021/08/20 09:26:02;;;;;;;1.45;0.30;;;26.20;46.60;;;;;;5085788;27;20433;-64
2021/08/20 09:28:40;;;;;;;1.90;0.52;;;26.20;46.50;;;;;;5059824;27;20880;-64
2021/08/20 09:31:23;;;;;;;1.55;0.20;;;26.30;46.50;;;;;;5095254;27;21222;-64
2021/08/20 09:34:04;;;;;;;5.57;0.30;;;26.30;46.40;;;;;;5077144;28;20490;-58
2021/08/20 09:36:43;;;;;;;1.40;0.30;;;26.30;46.30;;;;;;5077142;27;20488;-61
2021/08/20 09:39:28;;;;;;;1.42;0.20;;;26.30;46.20;;;;;;5079172;28;20420;-60
2021/08/20 09:42:16;;;;;;;1.15;0.40;;;26.40;46.20;;;;;;5081233;27;20389;-63
2021/08/20 09:45:18;;;;;;;0.95;0.40;;;26.40;46.20;;;;;;5084345;27;20450;-61
2021/08/20 09:47:59;;;;;;;2.35;0.30;;;26.50;46.40;;;;;;5083421;28;20459;-61
2021/08/20 09:50:43;;;;;;;2.05;1.02;;;26.40;46.00;;;;;;5083241;28;20472;-55
2021/08/20 09:53:26;;;;;;;2.65;0.63;;;26.50;46.10;;;;;;5104608;27;20864;-58
2021/08/20 09:56:07;;;;;;;3.50;0.88;;;26.50;45.90;;;;;;5056837;27;20390;-62
2021/08/20 09:58:35;;;;;;;1.27;0.25;;;26.50;45.70;;;;;;5058213;28;20106;-59
2021/08/20 10:01:15;;;;;;;0.43;0.10;;;26.60;45.60;;;;;;5078179;27;20385;-64
2021/08/20 10:03:58;;;;;;;4.03;0.20;;;26.60;45.50;;;;;;5094440;27;20420;-64
2021/08/20 10:06:40;;;;;;;4.82;0.65;;;26.70;45.30;;;;;;5076208;28;20473;-55
2021/08/20 10:09:21;;;;;;;4.70;0.47;;;26.70;45.20;;;;;;5082701;28;20845;-70
2021/08/20 10:12:02;;;;;;;7.60;0.43;;;26.70;45.20;;;;;;5081157;27;20444;-65
2021/08/20 10:14:41;;;;;;;5.38;0.40;;;26.70;45.10;;;;;;5083605;27;20977;-51
2021/08/20 10:17:10;;;;;;;3.13;0.20;;;26.80;45.00;;;;;;5065818;28;20120;-54
2021/08/20 10:19:38;;;;;;;1.90;0.47;;;26.80;45.00;;;;;;5065552;28;20447;-59
2021/08/20 10:22:06;;;;;;;0.98;0.10;;;26.80;45.00;;;;;;5068031;28;20167;-51
2021/08/20 10:24:33;;;;;;;1.17;0.20;;;26.90;45.00;;;;;;5063577;28;20052;-50
2021/08/20 10:27:12;;;;;;;0.60;0.55;;;26.90;44.90;;;;;;5052443;28;20071;-56
2021/08/20 10:29:47;;;;;;;0.90;0.77;;;26.90;44.70;;;;;;5045688;28;20423;-63
2021/08/20 10:32:16;;;;;;;4.18;0.50;;;27.00;44.60;;;;;;5042987;28;20034;-62
2021/08/20 10:34:44;;;;;;;0.40;0.20;;;27.00;44.20;;;;;;5046415;28;20609;-64
2021/08/20 10:37:13;;;;;;;5.47;0.20;;;27.00;43.90;;;;;;5046306;28;20124;-69
2021/08/20 10:39:42;;;;;;;115.00;6.78;;;27.10;44.00;;;;;;5047389;28;20128;-54
2021/08/20 10:42:11;;;;;;;1.38;0.10;;;27.10;44.10;;;;;;5047658;28;20037;-52
2021/08/20 10:45:03;;;;;;;1.83;0.68;;;27.20;44.30;;;;;;5081887;27;21289;-54
2021/08/20 10:47:46;;;;;;;7.68;0.30;;;27.20;44.20;;;;;;5080873;28;20422;-55
2021/08/20 10:50:38;;;;;;;1.30;0.20;;;27.30;44.30;;;;;;5084615;27;20988;-57
2021/08/20 10:53:23;;;;;;;6.07;0.20;;;27.40;44.20;;;;;;5085472;27;20378;-57
2021/08/20 10:55:50;;;;;;;2.95;0.20;;;27.40;44.10;;;;;;5054588;28;20067;-54
2021/08/20 10:58:42;;;;;;;4.07;0.25;;;27.40;44.10;;;;;;5090391;27;20397;-55
2021/08/20 11:01:21;;;;;;;1.40;0.40;;;27.50;44.00;;;;;;5071309;28;20477;-56
2021/08/20 11:04:03;;;;;;;0.28;0.28;;;27.50;44.00;;;;;;5073751;27;20387;-55
2021/08/20 11:06:53;;;;;;;0.98;0.30;;;27.60;44.10;;;;;;5117952;27;20388;-55
2021/08/20 11:09:42;;;;;;;0.88;0.40;;;27.60;44.00;;;;;;5078435;27;20472;-55
2021/08/20 11:15:44;;;;;;;0.93;0.40;;;27.60;44.10;;;;;;5081180;28;21146;-51
2021/08/20 11:18:46;;;;;;;1.30;0.52;;;27.60;44.00;;;;;;5079595;28;20429;-55
2021/08/20 11:21:45;;;;;;;0.55;0.55;;;27.60;44.00;;;;;;5113869;27;20440;-56
2021/08/20 11:24:25;;;;;;;0.60;0.35;;;27.70;44.10;;;;;;5141068;27;20475;-55
2021/08/20 11:27:15;;;;;;;0.50;0.32;;;27.60;44.00;;;;;;5084997;28;20389;-50
2021/08/20 11:29:58;;;;;;;1.15;0.28;;;27.70;44.00;;;;;;5081948;28;20497;-55
2021/08/20 11:32:34;;;;;;;4.18;0.20;;;27.70;44.00;;;;;;5064405;28;20052;-55
2021/08/20 11:35:01;;;;;;;0.55;0.20;;;27.70;43.90;;;;;;5052189;28;20053;-53
2021/08/20 11:37:28;;;;;;;0.40;0.20;;;27.70;43.90;;;;;;5048875;28;20389;-56
2021/08/20 11:40:03;;;;;;;1.83;0.20;;;27.70;43.90;;;;;;5033615;28;20056;-54
2021/08/20 11:42:30;;;;;;;0.88;0.20;;;27.70;43.80;;;;;;5028328;28;20614;-54
2021/08/20 11:45:17;;;;;;;0.73;0.20;;;27.70;43.80;;;;;;5028722;28;20148;-56
2021/08/20 11:47:45;;;;;;;0.40;0.40;;;27.70;43.70;;;;;;5028072;28;20132;-56
2021/08/20 11:50:13;;;;;;;0.32;0.32;;;27.70;43.70;;;;;;5026303;28;20127;-54
2021/08/20 11:52:47;;;;;;;0.68;0.20;;;27.70;43.70;;;;;;5028332;28;20046;-55
2021/08/20 11:55:17;;;;;;;0.20;0.10;;;27.70;43.60;;;;;;5040159;28;20041;-57
2021/08/20 11:57:44;;;;;;;0.57;0.20;;;27.70;43.60;;;;;;5036030;28;20523;-56
2021/08/20 12:00:14;;;;;;;0.82;0.20;;;27.70;43.50;;;;;;5028518;28;20466;-56
2021/08/20 12:02:41;;;;;;;0.40;0.20;;;27.70;43.50;;;;;;5027165;28;20077;-56
2021/08/20 12:05:13;;;;;;;0.20;0.13;;;27.70;43.50;;;;;;5030132;28;20431;-56
2021/08/20 12:07:41;;;;;;;0.98;0.30;;;27.70;43.50;;;;;;5028028;28;20125;-54
2021/08/20 12:10:10;;;;;;;0.13;0.10;;;27.70;43.50;;;;;;5028189;28;20092;-54
2021/08/20 12:12:38;;;;;;;0.40;0.10;;;27.70;43.40;;;;;;5031141;28;20067;-57
2021/08/20 12:15:06;;;;;;;0.30;0.30;;;27.70;43.40;;;;;;5027821;28;20072;-56
2021/08/20 12:17:35;;;;;;;0.43;0.20;;;27.70;43.50;;;;;;5025733;28;20047;-55
2021/08/20 12:20:17;;;;;;;1.85;0.20;;;27.70;43.50;;;;;;5042294;28;20041;-55
2021/08/20 12:22:49;;;;;;;1.85;0.25;;;27.70;43.60;;;;;;5028174;28;20092;-54
2021/08/20 12:25:19;;;;;;;0.55;0.30;;;27.70;43.50;;;;;;5027911;28;20545;-55
2021/08/20 12:27:47;;;;;;;0.43;0.10;;;27.70;43.70;;;;;;5030740;28;20049;-56
2021/08/20 12:30:15;;;;;;;0.57;0.30;;;27.70;43.60;;;;;;5028213;28;20034;-55
2021/08/20 12:32:53;;;;;;;1.60;0.30;;;27.70;43.60;;;;;;5026859;28;20084;-56
2021/08/20 12:35:22;;;;;;;0.17;0.17;;;27.70;43.70;;;;;;5040467;28;20443;-56
2021/08/20 12:38:04;;;;;;;1.85;0.22;;;27.70;43.70;;;;;;5044044;28;20041;-55
2021/08/20 12:40:37;;;;;;;1.02;0.10;;;27.70;43.70;;;;;;5024614;28;20053;-56
2021/08/20 12:43:20;;;;;;;0.30;0.30;;;27.70;44.30;;;;;;5017450;28;20054;-53
2021/08/20 12:46:05;;;;;;;0.98;0.10;;;27.70;43.70;;;;;;5018879;28;20046;-59
2021/08/20 12:48:33;;;;;;;0.20;0.10;;;27.70;43.70;;;;;;5014456;28;20115;-56
2021/08/20 12:51:02;;;;;;;0.32;0.13;;;27.70;43.70;;;;;;5014541;28;20128;-58
2021/08/20 12:53:30;;;;;;;0.52;0.10;;;27.70;43.70;;;;;;5012109;28;20112;-56
2021/08/20 12:55:57;;;;;;;0.90;0.10;;;27.70;43.70;;;;;;5017993;28;20539;-58
2021/08/20 12:58:27;;;;;;;0.15;0.10;;;27.70;43.70;;;;;;5027092;28;20077;-57
2021/08/20 13:00:56;;;;;;;0.20;0.10;;;27.80;43.70;;;;;;5029981;28;20602;-53
2021/08/20 13:03:23;;;;;;;1.48;0.10;;;27.80;43.80;;;;;;5025357;28;20041;-57
2021/08/20 13:05:53;;;;;;;0.15;0.10;;;27.80;43.70;;;;;;5014190;28;20030;-55
2021/08/20 13:08:21;;;;;;;1.23;0.10;;;27.80;43.70;;;;;;5010912;28;20046;-53
2021/08/20 13:10:48;;;;;;;0.70;0.20;;;27.70;43.70;;;;;;5018370;28;20060;-54
2021/08/20 13:13:16;;;;;;;0.10;0.10;;;27.80;43.70;;;;;;5017029;28;20058;-53
2021/08/20 13:15:43;;;;;;;0.45;0.10;;;27.80;43.70;;;;;;5013939;28;20038;-56
2021/08/20 13:18:10;;;;;;;0.20;0.20;;;27.80;43.70;;;;;;5016919;28;20039;-55
2021/08/20 13:20:37;;;;;;;1.30;0.10;;;27.80;43.70;;;;;;5013602;28;20507;-57
2021/08/20 13:23:06;;;;;;;1.48;0.30;;;27.80;43.60;;;;;;5029434;28;20045;-55
2021/08/20 13:25:33;;;;;;;0.20;0.20;;;27.90;43.70;;;;;;5015108;28;20523;-56
2021/08/20 13:28:00;;;;;;;0.57;0.10;;;27.80;43.60;;;;;;5017608;28;20050;-53
2021/08/20 13:30:27;;;;;;;0.00;0.00;;;27.90;43.70;;;;;;5013807;28;20475;-52
2021/08/20 13:32:54;;;;;;;0.22;0.10;;;27.90;43.70;;;;;;5013638;28;20026;-56
2021/08/20 13:35:21;;;;;;;0.10;0.10;;;28.00;43.70;;;;;;5010469;28;20049;-58
2021/08/20 13:37:49;;;;;;;0.75;0.10;;;28.00;43.70;;;;;;5017853;28;20132;-58
2021/08/20 13:40:18;;;;;;;2.28;0.00;;;28.00;43.70;;;;;;5018161;28;20599;-56
2021/08/20 13:42:45;;;;;;;0.40;0.20;;;28.10;43.70;;;;;;5022447;28;20080;-65
2021/08/20 13:45:12;;;;;;;1.98;0.75;;;28.10;43.70;;;;;;5018994;28;20052;-64